createdAt,value
2019-06-10T00:00:52.940Z,5.47
2019-06-10T00:03:24.495Z,5.40
2019-06-10T00:05:56.106Z,6.13
2019-06-10T00:08:30.701Z,6.27
2019-06-10T00:11:04.961Z,6.70
2019-06-10T00:13:35.180Z,7.23
2019-06-10T00:16:08.038Z,6.73
2019-06-10T00:18:43.003Z,5.87
2019-06-10T00:21:12.985Z,5.80
2019-06-10T00:23:44.568Z,6.30
2019-06-10T00:26:16.120Z,6.30
2019-06-10T00:28:47.699Z,6.33
2019-06-10T00:31:20.752Z,6.20
2019-06-10T00:33:52.470Z,6.63
2019-06-10T00:36:27.038Z,6.63
2019-06-10T00:38:59.328Z,6.47
2019-06-10T00:41:31.435Z,6.33
2019-06-10T00:44:04.085Z,7.03
2019-06-10T00:46:36.361Z,6.40
2019-06-10T00:49:09.830Z,6.10
2019-06-10T00:51:41.507Z,6.23
2019-06-10T00:54:15.407Z,6.43
2019-06-10T00:56:46.429Z,7.60
2019-06-10T00:59:17.977Z,8.10
2019-06-10T01:01:50.879Z,6.20
2019-06-10T01:04:22.629Z,9.50
2019-06-10T01:06:54.206Z,8.30
2019-06-10T01:09:25.860Z,6.07
2019-06-10T01:11:57.454Z,8.27
2019-06-10T01:14:28.988Z,7.33
2019-06-10T01:17:01.301Z,7.90
2019-06-10T01:19:33.969Z,6.80
2019-06-10T01:22:05.995Z,8.23
2019-06-10T01:24:37.709Z,8.77
2019-06-10T01:27:11.898Z,6.37
2019-06-10T01:29:42.541Z,6.67
2019-06-10T01:32:15.081Z,5.53
2019-06-10T01:34:46.752Z,5.70
2019-06-10T01:37:18.394Z,7.20
2019-06-10T01:39:51.522Z,6.10
2019-06-10T01:42:23.204Z,6.00
2019-06-10T01:44:54.760Z,6.40
2019-06-10T01:47:26.348Z,6.30
2019-06-10T01:49:57.909Z,6.87
2019-06-10T01:52:31.677Z,6.10
2019-06-10T01:55:03.292Z,5.80
2019-06-10T01:57:34.875Z,5.57
2019-06-10T02:00:09.952Z,6.03
2019-06-10T02:02:44.532Z,7.97
2019-06-10T02:05:15.970Z,5.83
2019-06-10T02:07:47.754Z,6.70
2019-06-10T02:10:22.546Z,6.20
2019-06-10T02:12:52.648Z,5.83
2019-06-10T02:15:24.220Z,7.43
2019-06-10T02:17:55.769Z,6.97
2019-06-10T02:20:27.419Z,6.67
2019-06-10T02:22:58.977Z,7.20
2019-06-10T02:25:30.582Z,6.70
2019-06-10T02:28:02.093Z,5.83
2019-06-10T02:30:43.135Z,5.80
2019-06-10T02:33:06.903Z,7.60
2019-06-10T02:35:44.390Z,6.67
2019-06-10T02:38:16.950Z,6.40
2019-06-10T02:40:45.048Z,6.83
2019-06-10T02:43:23.911Z,6.27
2019-06-10T02:45:53.044Z,6.50
2019-06-10T02:48:30.302Z,8.33
2019-06-10T02:51:08.129Z,8.93
2019-06-10T02:53:43.357Z,7.23
2019-06-10T02:56:14.918Z,6.60
2019-06-10T02:58:47.424Z,5.93
2019-06-10T03:01:21.480Z,6.87
2019-06-10T03:03:54.206Z,6.93
2019-06-10T03:06:33.374Z,5.93
2019-06-10T03:08:58.889Z,11.10
2019-06-10T03:11:36.470Z,9.40
2019-06-10T03:14:03.829Z,9.97
2019-06-10T03:16:42.292Z,7.97
2019-06-10T03:19:14.009Z,6.80
2019-06-10T03:21:45.578Z,7.07
2019-06-10T03:24:17.128Z,7.63
2019-06-10T03:26:48.699Z,6.83
2019-06-10T03:29:21.252Z,6.53
2019-06-10T03:31:55.178Z,5.70
2019-06-10T03:34:33.714Z,8.67
2019-06-10T03:37:02.339Z,5.77
2019-06-10T03:39:33.497Z,7.40
2019-06-10T03:42:05.076Z,5.77
2019-06-10T03:44:37.621Z,7.73
2019-06-10T03:47:09.195Z,6.50
2019-06-10T03:49:49.886Z,6.37
2019-06-10T03:52:14.075Z,6.80
2019-06-10T03:54:45.655Z,6.70
2019-06-10T03:57:17.227Z,7.40
2019-06-10T03:59:48.818Z,8.43
2019-06-10T04:02:23.454Z,7.10
2019-06-10T04:04:53.766Z,8.00
2019-06-10T04:07:28.252Z,8.10
2019-06-10T04:09:58.618Z,6.90
2019-06-10T04:12:32.586Z,7.43
2019-06-10T04:15:03.597Z,7.03
2019-06-10T04:17:35.224Z,6.80
2019-06-10T04:20:12.125Z,7.03
2019-06-10T04:22:40.886Z,10.30
2019-06-10T04:25:12.580Z,6.63
2019-06-10T04:27:44.123Z,8.20
2019-06-10T04:30:16.600Z,10.87
2019-06-10T04:32:48.595Z,6.10
2019-06-10T04:35:20.880Z,6.57
2019-06-10T04:37:53.456Z,8.10
2019-06-10T04:40:26.313Z,6.40
2019-06-10T04:42:58.299Z,6.70
2019-06-10T04:45:32.213Z,5.90
2019-06-10T04:48:03.233Z,5.70
2019-06-10T04:50:42.163Z,7.70
2019-06-10T04:53:08.034Z,6.17
2019-06-10T04:55:39.623Z,6.47
2019-06-10T04:58:12.978Z,7.43
2019-06-10T05:00:44.628Z,6.90
2019-06-10T05:03:16.203Z,5.40
2019-06-10T05:05:47.725Z,6.10
2019-06-10T05:08:19.275Z,7.67
2019-06-10T05:10:52.844Z,6.13
2019-06-10T05:13:25.574Z,6.30
2019-06-10T05:15:57.401Z,6.57
2019-06-10T05:18:30.218Z,10.73
2019-06-10T05:21:02.840Z,6.63
2019-06-10T05:23:34.817Z,9.03
2019-06-10T05:26:06.384Z,7.30
2019-06-10T05:28:37.940Z,7.30
2019-06-10T05:31:09.491Z,8.03
2019-06-10T05:33:42.611Z,6.63
2019-06-10T05:36:14.493Z,6.50
2019-06-10T05:38:46.182Z,6.70
2019-06-10T05:41:17.783Z,6.33
2019-06-10T05:43:49.342Z,7.13
2019-06-10T05:46:23.674Z,6.23
2019-06-10T05:48:54.239Z,10.13
2019-06-10T05:51:26.425Z,7.23
2019-06-10T05:53:59.221Z,6.70
2019-06-10T05:56:33.778Z,6.60
2019-06-10T05:59:04.453Z,8.17
2019-06-10T06:01:38.407Z,8.20
2019-06-10T06:04:09.322Z,7.70
2019-06-10T06:06:42.465Z,8.57
2019-06-10T06:09:14.218Z,6.90
2019-06-10T06:11:45.916Z,6.97
2019-06-10T06:14:17.575Z,7.40
2019-06-10T06:16:49.156Z,7.77
2019-06-10T06:19:22.976Z,6.97
2019-06-10T06:21:54.013Z,7.67
2019-06-10T06:24:25.655Z,8.00
2019-06-10T06:26:57.255Z,7.67
2019-06-10T06:29:28.924Z,7.50
2019-06-10T06:32:02.608Z,10.47
2019-06-10T06:34:35.791Z,9.10
2019-06-10T06:37:06.980Z,7.13
2019-06-10T06:39:38.633Z,7.33
2019-06-10T06:42:12.561Z,6.93
2019-06-10T06:44:43.529Z,8.10
2019-06-10T06:47:15.193Z,6.87
2019-06-10T06:49:46.760Z,7.17
2019-06-10T06:52:34.657Z,7.10
2019-06-10T06:54:53.034Z,6.47
2019-06-10T06:57:24.751Z,6.93
2019-06-10T06:59:56.390Z,7.60
2019-06-10T07:02:27.954Z,6.97
2019-06-10T07:04:59.536Z,6.10
2019-06-10T07:07:33.112Z,6.07
2019-06-10T07:10:06.175Z,6.20
2019-06-10T07:12:39.394Z,6.43
2019-06-10T07:15:12.914Z,6.90
2019-06-10T07:17:45.657Z,7.30
2019-06-10T07:20:17.615Z,5.67
2019-06-10T07:22:49.204Z,7.03
2019-06-10T07:25:23.005Z,6.80
2019-06-10T07:27:54.060Z,6.47
2019-06-10T07:30:26.024Z,6.93
2019-06-10T07:32:57.626Z,6.23
2019-06-10T07:35:29.207Z,6.60
2019-06-10T07:38:03.034Z,6.27
2019-06-10T07:40:35.911Z,9.57
2019-06-10T07:43:07.361Z,7.10
2019-06-10T07:45:40.819Z,6.63
2019-06-10T07:48:12.360Z,5.53
2019-06-10T07:50:45.672Z,6.53
2019-06-10T07:53:17.251Z,4.63
2019-06-10T07:55:48.812Z,6.73
2019-06-10T07:58:22.427Z,5.30
2019-06-10T08:00:53.700Z,6.90
2019-06-10T08:03:25.305Z,6.30
2019-06-10T08:05:56.891Z,5.70
2019-06-10T08:08:28.478Z,9.07
2019-06-10T08:11:03.070Z,5.73
2019-06-10T08:13:33.375Z,6.27
2019-06-10T08:16:05.032Z,6.30
2019-06-10T08:18:44.469Z,7.13
2019-06-10T08:21:12.152Z,6.83
2019-06-10T08:23:46.543Z,7.07
2019-06-10T08:26:16.669Z,8.13
2019-06-10T08:28:48.402Z,5.90
2019-06-10T08:31:22.374Z,7.00
2019-06-10T08:33:53.747Z,5.90
2019-06-10T08:36:25.373Z,6.43
2019-06-10T08:38:57.160Z,6.40
2019-06-10T08:41:28.802Z,6.83
2019-06-10T08:44:02.348Z,8.30
2019-06-10T08:46:33.619Z,6.30
2019-06-10T08:49:05.214Z,7.30
2019-06-10T08:51:37.105Z,7.40
2019-06-10T08:54:08.699Z,7.37
2019-06-10T08:56:42.884Z,9.43
2019-06-10T08:59:16.286Z,7.63
2019-06-10T09:01:51.555Z,8.93
2019-06-10T09:04:22.804Z,6.80
2019-06-10T09:06:54.466Z,7.80
2019-06-10T09:09:26.077Z,9.00
2019-06-10T09:11:57.654Z,5.43
2019-06-10T09:14:29.315Z,6.67
2019-06-10T09:17:03.444Z,6.17
2019-06-10T09:19:34.224Z,5.73
2019-06-10T09:22:05.827Z,6.90
2019-06-10T09:24:37.461Z,5.37
2019-06-10T09:27:09.070Z,6.50
2019-06-10T09:29:41.710Z,4.93
2019-06-10T09:32:13.957Z,7.10
2019-06-10T09:34:49.673Z,5.03
2019-06-10T09:37:18.846Z,8.20
2019-06-10T09:39:58.351Z,6.23
2019-06-10T09:42:24.019Z,6.93
2019-06-10T09:44:55.919Z,7.03
2019-06-10T09:47:28.477Z,6.67
2019-06-10T09:50:00.058Z,12.00
2019-06-10T09:52:32.850Z,7.40
2019-06-10T09:55:05.214Z,7.53
2019-06-10T09:57:37.257Z,7.10
2019-06-10T10:00:12.436Z,4.90
2019-06-10T10:02:48.003Z,5.17
2019-06-10T10:05:17.492Z,4.83
2019-06-10T10:07:52.106Z,3.40
2019-06-10T10:10:32.726Z,4.30
2019-06-10T10:13:04.626Z,4.23
2019-06-10T10:15:36.345Z,4.80
2019-06-10T10:18:09.990Z,4.92
2019-06-10T10:20:45.180Z,4.90
2019-06-10T10:23:15.882Z,4.50
2019-06-10T10:25:48.227Z,4.37
2019-06-10T10:28:23.007Z,4.07
2019-06-10T10:30:57.594Z,5.43
2019-06-10T10:33:30.133Z,4.67
2019-06-10T10:36:02.758Z,4.50
2019-06-10T10:38:34.901Z,4.93
2019-06-10T10:41:07.000Z,4.10
2019-06-10T10:43:38.671Z,3.60
2019-06-10T10:46:13.478Z,5.20
2019-06-10T10:48:44.969Z,3.70
2019-06-10T10:51:17.607Z,4.20
2019-06-10T10:54:16.952Z,4.95
2019-06-10T10:56:23.079Z,4.53
2019-06-10T10:58:56.361Z,5.63
2019-06-10T11:01:27.951Z,4.53
2019-06-10T11:04:02.714Z,5.47
2019-06-10T11:06:33.283Z,4.17
2019-06-10T11:09:08.887Z,3.67
2019-06-10T11:11:44.105Z,7.53
2019-06-10T11:14:15.555Z,4.43
2019-06-10T11:16:47.250Z,3.90
2019-06-10T11:19:19.201Z,6.20
2019-06-10T11:21:51.587Z,5.30
2019-06-10T11:24:36.367Z,7.93
2019-06-10T11:26:58.359Z,4.33
2019-06-10T11:29:32.707Z,5.87
2019-06-10T11:32:03.482Z,3.80
2019-06-10T11:34:35.178Z,3.70
2019-06-10T11:37:06.775Z,5.40
2019-06-10T11:39:38.801Z,4.43
2019-06-10T11:42:13.073Z,4.87
2019-06-10T11:44:43.687Z,5.30
2019-06-10T11:47:18.012Z,5.20
2019-06-10T11:49:52.290Z,5.77
2019-06-10T11:52:23.079Z,5.00
2019-06-10T11:55:05.437Z,3.90
2019-06-10T11:57:28.127Z,4.60
2019-06-10T11:59:59.783Z,4.80
2019-06-10T12:02:32.956Z,4.40
2019-06-10T12:05:05.030Z,4.60
2019-06-10T12:07:36.610Z,4.40
2019-06-10T12:10:12.905Z,4.30
2019-06-10T12:12:43.969Z,5.93
2019-06-10T12:15:16.154Z,4.30
2019-06-10T12:17:53.558Z,5.47
2019-06-10T12:20:22.822Z,4.53
2019-06-10T12:22:58.285Z,4.90
2019-06-10T12:25:36.850Z,6.97
2019-06-10T12:28:07.011Z,5.33
2019-06-10T12:30:35.515Z,4.87
2019-06-10T12:33:07.128Z,4.93
2019-06-10T12:35:38.728Z,4.50
2019-06-10T12:38:13.071Z,5.50
2019-06-10T12:40:43.612Z,4.70
2019-06-10T12:43:15.178Z,4.60
2019-06-10T12:45:46.765Z,5.30
2019-06-10T12:48:18.336Z,5.20
2019-06-10T12:50:49.954Z,5.37
2019-06-10T12:53:22.981Z,5.80
2019-06-10T12:55:55.836Z,5.50
2019-06-10T12:58:27.958Z,6.37
2019-06-10T13:00:59.637Z,5.63
2019-06-10T13:03:32.934Z,6.70
2019-06-10T13:06:09.054Z,5.30
2019-06-10T13:08:39.201Z,8.60
2019-06-10T13:11:13.274Z,7.90
2019-06-10T13:13:44.203Z,5.60
2019-06-10T13:16:17.596Z,6.10
2019-06-10T13:18:49.198Z,7.30
2019-06-10T13:21:22.742Z,9.00
2019-06-10T13:23:54.820Z,7.17
2019-06-10T13:26:27.304Z,6.70
2019-06-10T13:28:59.028Z,6.43
2019-06-10T13:31:32.873Z,5.57
2019-06-10T13:34:09.054Z,6.17
2019-06-10T13:36:37.264Z,4.90
2019-06-10T13:39:10.607Z,4.90
2019-06-10T13:41:43.852Z,6.13
2019-06-10T13:44:16.819Z,5.53
2019-06-10T13:46:48.603Z,5.03
2019-06-10T13:49:22.753Z,5.47
2019-06-10T13:51:53.513Z,5.17
2019-06-10T13:54:25.144Z,5.27
2019-06-10T13:56:56.726Z,7.37
2019-06-10T13:59:28.323Z,8.20
2019-06-10T14:01:59.819Z,6.13
2019-06-10T14:04:33.308Z,6.13
2019-06-10T14:07:08.668Z,7.33
2019-06-10T14:09:38.612Z,6.17
2019-06-10T14:12:14.746Z,5.37
2019-06-10T14:14:43.491Z,6.37
2019-06-10T14:17:19.014Z,6.27
2019-06-10T14:19:48.358Z,9.63
2019-06-10T14:22:22.662Z,10.00
2019-06-10T14:24:54.325Z,6.37
2019-06-10T14:27:25.928Z,5.53
2019-06-10T14:29:57.507Z,7.73
2019-06-10T14:32:29.133Z,6.87
2019-06-10T14:35:00.714Z,9.03
2019-06-10T14:37:38.921Z,7.33
2019-06-10T14:40:07.503Z,7.63
2019-06-10T14:42:39.546Z,8.00
2019-06-10T14:45:13.900Z,11.03
2019-06-10T14:47:45.002Z,11.13
2019-06-10T14:50:17.421Z,8.07
2019-06-10T14:52:49.205Z,8.70
2019-06-10T14:55:23.098Z,6.87
2019-06-10T14:57:54.040Z,7.57
2019-06-10T15:00:25.723Z,7.80
2019-06-10T15:02:57.313Z,9.20
2019-06-10T15:05:28.905Z,8.20
2019-06-10T15:08:03.152Z,8.60
2019-06-10T15:10:33.824Z,9.77
2019-06-10T15:13:05.460Z,7.57
2019-06-10T15:15:37.056Z,7.70
2019-06-10T15:18:09.323Z,7.43
2019-06-10T15:20:42.848Z,9.07
2019-06-10T15:23:17.033Z,6.40
2019-06-10T15:25:52.874Z,6.70
2019-06-10T15:28:23.285Z,7.33
2019-06-10T15:30:54.489Z,7.40
2019-06-10T15:33:26.206Z,8.63
2019-06-10T15:35:57.883Z,6.80
2019-06-10T15:38:29.471Z,8.37
2019-06-10T15:41:01.093Z,7.37
2019-06-10T15:43:34.562Z,6.60
2019-06-10T15:46:06.185Z,7.17
2019-06-10T15:48:37.871Z,7.77
2019-06-10T15:51:11.025Z,6.60
2019-06-10T15:53:43.200Z,7.13
2019-06-10T15:56:27.181Z,7.97
2019-06-10T15:58:48.824Z,6.53
2019-06-10T16:01:25.286Z,7.80
2019-06-10T16:03:53.674Z,9.30
2019-06-10T16:06:25.264Z,9.10
2019-06-10T16:08:56.872Z,7.30
2019-06-10T16:11:41.077Z,7.30
2019-06-10T16:14:14.666Z,7.90
2019-06-10T16:16:46.453Z,7.20
2019-06-10T16:19:19.546Z,12.90
2019-06-10T16:21:52.468Z,6.90
2019-06-10T16:24:27.331Z,7.53
2019-06-10T16:26:57.729Z,7.50
2019-06-10T16:29:29.305Z,6.80
2019-06-10T16:32:02.594Z,6.97
2019-06-10T16:34:34.335Z,8.37
2019-06-10T16:37:05.983Z,6.97
2019-06-10T16:39:37.604Z,12.50
2019-06-10T16:42:09.354Z,15.67
2019-06-10T16:44:42.361Z,11.80
2019-06-10T16:47:14.180Z,8.90
2019-06-10T16:49:45.802Z,9.33
2019-06-10T16:52:17.480Z,8.40
2019-06-10T16:54:49.081Z,8.17
2019-06-10T16:57:23.714Z,12.90
2019-06-10T16:59:54.012Z,10.07
2019-06-10T17:02:26.876Z,9.43
2019-06-10T17:04:58.729Z,14.83
2019-06-10T17:07:32.702Z,10.40
2019-06-10T17:10:03.628Z,12.80
2019-06-10T17:12:35.216Z,8.90
2019-06-10T17:15:08.520Z,9.17
2019-06-10T17:17:40.453Z,8.63
2019-06-10T17:20:13.094Z,9.13
2019-06-10T17:22:44.778Z,11.30
2019-06-10T17:25:16.463Z,11.23
2019-06-10T17:27:48.183Z,11.17
2019-06-10T17:30:22.389Z,11.23
2019-06-10T17:32:53.394Z,48.73
2019-06-10T17:35:26.172Z,39.83
2019-06-10T17:37:57.959Z,19.53
2019-06-10T17:40:29.640Z,17.17
2019-06-10T17:43:02.417Z,13.57
2019-06-10T17:45:34.128Z,11.30
2019-06-10T17:48:06.809Z,11.00
2019-06-10T17:50:38.372Z,9.80
2019-06-10T17:53:12.566Z,11.50
2019-06-10T17:55:43.381Z,11.73
2019-06-10T17:58:14.992Z,11.23
2019-06-10T18:00:46.645Z,12.80
2019-06-10T18:03:18.220Z,10.63
2019-06-10T18:05:49.802Z,13.03
2019-06-10T18:08:22.962Z,12.20
2019-06-10T18:10:54.787Z,10.33
2019-06-10T18:13:26.399Z,11.50
2019-06-10T18:15:58.019Z,8.83
2019-06-10T18:18:30.570Z,10.83
2019-06-10T18:21:03.573Z,9.13
2019-06-10T18:23:35.392Z,11.30
2019-06-10T18:26:06.993Z,8.10
2019-06-10T18:28:57.850Z,8.53
2019-06-10T18:31:11.929Z,9.10
2019-06-10T18:33:43.748Z,10.83
2019-06-10T18:36:15.385Z,8.90
2019-06-10T18:38:47.036Z,12.13
2019-06-10T18:41:18.611Z,9.20
2019-06-10T18:43:50.206Z,9.20
2019-06-10T18:46:23.202Z,10.27
2019-06-10T18:48:54.905Z,9.50
2019-06-10T18:51:27.206Z,9.07
2019-06-10T18:53:59.106Z,10.10
2019-06-10T18:56:33.682Z,10.87
2019-06-10T18:59:15.677Z,13.70
2019-06-10T19:01:38.676Z,11.20
2019-06-10T19:04:12.830Z,10.40
2019-06-10T19:06:43.824Z,12.73
2019-06-10T19:09:15.570Z,11.60
2019-06-10T19:11:47.220Z,11.17
2019-06-10T19:14:18.911Z,11.30
2019-06-10T19:16:52.449Z,10.70
2019-06-10T19:19:23.879Z,10.70
2019-06-10T19:22:05.437Z,12.23
2019-06-10T19:24:30.273Z,13.77
2019-06-10T19:27:05.425Z,10.33
2019-06-10T19:29:42.952Z,11.17
2019-06-10T19:32:12.426Z,10.33
2019-06-10T19:34:48.211Z,10.40
2019-06-10T19:37:16.733Z,11.47
2019-06-10T19:39:53.178Z,11.80
2019-06-10T19:42:21.731Z,11.60
2019-06-10T19:44:53.361Z,10.67
2019-06-10T19:47:24.983Z,11.47
2019-06-10T19:49:56.602Z,12.03
2019-06-10T19:52:28.231Z,10.63
2019-06-10T19:55:02.516Z,11.17
2019-06-10T19:57:34.307Z,11.07
2019-06-10T20:00:12.170Z,10.57
2019-06-10T20:02:44.528Z,11.23
2019-06-10T20:05:14.915Z,9.87
2019-06-10T20:07:50.247Z,10.33
2019-06-10T20:10:19.818Z,10.60
2019-06-10T20:12:53.735Z,11.27
2019-06-10T20:15:25.402Z,10.50
2019-06-10T20:17:56.987Z,14.17
2019-06-10T20:20:28.602Z,12.13
2019-06-10T20:23:03.157Z,12.87
2019-06-10T20:25:33.539Z,13.50
2019-06-10T20:28:05.288Z,13.30
2019-06-10T20:30:37.310Z,13.30
2019-06-10T20:33:09.104Z,13.77
2019-06-10T20:35:42.069Z,14.23
2019-06-10T20:38:13.789Z,15.60
2019-06-10T20:40:46.023Z,15.13
2019-06-10T20:43:18.894Z,16.00
2019-06-10T20:45:50.517Z,14.20
2019-06-10T20:48:22.447Z,15.03
2019-06-10T20:50:55.403Z,13.70
2019-06-10T20:53:27.014Z,16.47
2019-06-10T20:55:58.581Z,15.37
2019-06-10T20:58:30.195Z,16.10
2019-06-10T21:01:04.679Z,16.33
2019-06-10T21:03:35.570Z,16.30
2019-06-10T21:06:07.099Z,16.20
2019-06-10T21:08:39.446Z,15.80
2019-06-10T21:11:12.908Z,18.00
2019-06-10T21:13:48.772Z,17.97
2019-06-10T21:16:22.914Z,17.73
2019-06-10T21:18:55.534Z,19.50
2019-06-10T21:21:27.553Z,15.87
2019-06-10T21:23:59.166Z,18.17
2019-06-10T21:26:32.532Z,16.90
2019-06-10T21:29:04.328Z,19.87
2019-06-10T21:31:36.928Z,17.87
2019-06-10T21:34:08.561Z,15.20
2019-06-10T21:36:41.233Z,14.17
2019-06-10T21:39:12.865Z,20.83
2019-06-10T21:41:45.636Z,15.17
2019-06-10T21:44:17.784Z,13.80
2019-06-10T21:46:50.326Z,13.13
2019-06-10T21:49:23.638Z,13.93
2019-06-10T21:51:57.086Z,15.47
2019-06-10T21:54:28.583Z,13.37
2019-06-10T21:57:02.482Z,14.13
2019-06-10T21:59:33.452Z,15.13
2019-06-10T22:02:05.259Z,16.57
2019-06-10T22:04:36.892Z,17.90
2019-06-10T22:07:08.512Z,16.40
2019-06-10T22:09:42.406Z,17.43
2019-06-10T22:12:13.468Z,17.13
2019-06-10T22:14:46.189Z,16.43
2019-06-10T22:17:17.731Z,17.37
2019-06-10T22:19:50.579Z,15.70
2019-06-10T22:22:22.828Z,14.67
2019-06-10T22:24:55.183Z,15.20
2019-06-10T22:27:27.684Z,14.10
2019-06-10T22:29:59.266Z,14.90
2019-06-10T22:32:32.324Z,14.17
2019-06-10T22:35:03.953Z,11.67
2019-06-10T22:37:35.539Z,11.43
2019-06-10T22:40:07.412Z,11.93
2019-06-10T22:42:39.067Z,13.57
2019-06-10T22:45:13.051Z,11.33
2019-06-10T22:47:44.214Z,9.70
2019-06-10T22:50:15.831Z,9.97
2019-06-10T22:52:47.404Z,10.63
2019-06-10T22:55:18.997Z,9.57
2019-06-10T22:57:51.878Z,10.00
2019-06-10T23:00:23.863Z,9.77
2019-06-10T23:02:56.484Z,10.70
2019-06-10T23:05:28.677Z,7.10
2019-06-10T23:08:02.308Z,7.20
2019-06-10T23:10:33.834Z,8.00
2019-06-10T23:13:05.519Z,8.37
2019-06-10T23:15:37.149Z,6.20
2019-06-10T23:18:08.729Z,7.30
2019-06-10T23:20:42.580Z,7.33
2019-06-10T23:23:13.582Z,6.40
2019-06-10T23:25:45.149Z,7.10
2019-06-10T23:28:16.719Z,6.57
2019-06-10T23:30:48.334Z,6.90
2019-06-10T23:33:19.927Z,5.90
2019-06-10T23:35:52.556Z,6.27
2019-06-10T23:38:24.442Z,8.07
2019-06-10T23:40:57.012Z,5.47
2019-06-10T23:43:28.759Z,4.63
2019-06-10T23:46:01.966Z,16.63
2019-06-10T23:48:33.590Z,4.70
2019-06-10T23:51:05.284Z,4.23
2019-06-10T23:53:38.617Z,4.00
2019-06-10T23:56:10.197Z,4.53
2019-06-10T23:58:43.319Z,4.27
